Time;durP1;ratioP1;P1;durP2;ratioP2;P2;SDS_P1;SDS_P2;PMS_P1;PMS_P2;Temp;Humidity;BMP_temperature;BMP_pressure;BME280_temperature;BME280_humidity;BME280_pressure;Samples;Min_cycle;Max_cycle;Signal;HPM_P1;HPM_P2
2023/12/21 00:01:37;;;;;;;19.08;3.40;;;9.30;99.90;;;;;;5071814;28;20381;-80
2023/12/21 00:04:03;;;;;;;20.48;3.40;;;9.40;99.90;;;;;;5071621;28;20049;-78
2023/12/21 00:06:30;;;;;;;18.98;3.28;;;9.40;99.90;;;;;;5072664;28;20041;-78
2023/12/21 00:08:55;;;;;;;20.23;3.55;;;9.40;99.90;;;;;;5072406;28;20040;-74
2023/12/21 00:11:21;;;;;;;16.35;3.38;;;9.40;99.90;;;;;;5072176;28;20553;-76
2023/12/21 00:13:47;;;;;;;17.27;3.75;;;9.80;99.90;;;;;;5072699;28;20048;-77
2023/12/21 00:16:13;;;;;;;19.92;3.35;;;9.40;99.90;;;;;;5071270;28;20036;-77
2023/12/21 00:18:39;;;;;;;23.70;3.75;;;9.40;99.90;;;;;;5072239;28;20048;-76
2023/12/21 00:21:05;;;;;;;22.33;3.35;;;9.40;99.90;;;;;;5071197;28;20048;-76
2023/12/21 00:23:31;;;;;;;13.45;3.30;;;9.40;99.90;;;;;;5071646;28;20131;-76
2023/12/21 00:25:56;;;;;;;12.10;3.22;;;10.00;99.90;;;;;;5072755;28;20131;-77
2023/12/21 00:28:22;;;;;;;17.02;3.10;;;9.40;99.90;;;;;;5070608;28;20045;-77
2023/12/21 00:30:48;;;;;;;21.92;3.38;;;9.40;99.90;;;;;;5069508;28;20127;-76
2023/12/21 00:33:13;;;;;;;20.00;3.85;;;9.50;99.90;;;;;;5070207;28;20056;-75
2023/12/21 00:35:39;;;;;;;18.13;3.25;;;9.50;99.90;;;;;;5070542;28;20507;-76
2023/12/21 00:38:07;;;;;;;17.98;2.92;;;9.50;99.90;;;;;;5069603;28;20041;-76
2023/12/21 00:40:33;;;;;;;19.13;3.58;;;9.50;99.90;;;;;;5070361;28;20380;-75
2023/12/21 00:42:59;;;;;;;17.67;3.25;;;9.60;99.90;;;;;;5069581;28;20059;-76
2023/12/21 00:45:25;;;;;;;18.88;3.15;;;9.50;99.90;;;;;;5071187;28;20052;-76
2023/12/21 00:47:50;;;;;;;20.25;3.53;;;9.50;99.90;;;;;;5072379;28;20063;-76
2023/12/21 00:50:16;;;;;;;15.95;3.33;;;9.50;99.90;;;;;;5071573;28;20036;-77
2023/12/21 00:52:42;;;;;;;13.82;3.55;;;9.40;99.90;;;;;;5072284;28;20381;-76
2023/12/21 00:55:08;;;;;;;21.70;3.17;;;9.50;99.90;;;;;;5073027;28;20037;-76
2023/12/21 00:57:33;;;;;;;16.15;3.22;;;9.40;99.90;;;;;;5071924;28;20393;-76
2023/12/21 00:59:59;;;;;;;22.73;3.42;;;9.70;99.90;;;;;;5071019;28;20044;-76
2023/12/21 01:02:25;;;;;;;17.60;3.30;;;9.60;99.90;;;;;;5072146;28;20468;-76
2023/12/21 01:04:51;;;;;;;20.42;5.18;;;9.40;99.90;;;;;;5071880;28;20082;-75
2023/12/21 01:07:16;;;;;;;15.45;3.22;;;9.50;99.90;;;;;;5069542;28;20037;-76
2023/12/21 01:09:42;;;;;;;18.67;3.38;;;9.50;99.90;;;;;;5071090;28;20051;-77
2023/12/21 01:12:08;;;;;;;16.67;3.25;;;9.60;99.90;;;;;;5070925;28;20036;-78
2023/12/21 01:14:34;;;;;;;20.67;3.72;;;9.70;99.90;;;;;;5069764;28;20048;-79
2023/12/21 01:16:59;;;;;;;17.50;3.05;;;9.50;99.90;;;;;;5070704;28;20029;-76
2023/12/21 01:19:28;;;;;;;19.52;3.38;;;9.50;99.90;;;;;;5069937;28;20485;-76
2023/12/21 01:21:54;;;;;;;14.32;3.33;;;9.50;99.90;;;;;;5071210;28;20045;-76
2023/12/21 01:24:19;;;;;;;13.85;2.92;;;9.40;99.90;;;;;;5071241;28;20488;-77
2023/12/21 01:26:45;;;;;;;13.52;2.58;;;9.50;99.90;;;;;;5070979;28;20040;-79
2023/12/21 01:29:10;;;;;;;21.67;3.35;;;9.50;99.90;;;;;;5070162;28;20048;-75
2023/12/21 01:31:36;;;;;;;16.67;3.08;;;9.50;99.90;;;;;;5071075;28;20087;-74
2023/12/21 01:34:02;;;;;;;18.10;3.47;;;9.50;99.90;;;;;;5069903;28;20098;-75
2023/12/21 01:36:31;;;;;;;17.25;3.65;;;9.50;99.90;;;;;;5070938;28;20067;-74
2023/12/21 01:38:56;;;;;;;27.05;3.50;;;9.80;99.90;;;;;;5089132;28;20506;-78
2023/12/21 01:41:22;;;;;;;18.55;3.45;;;9.80;99.90;;;;;;5069917;28;20080;-79
2023/12/21 01:43:48;;;;;;;15.73;3.28;;;9.40;99.90;;;;;;5071224;28;20059;-80
2023/12/21 01:46:14;;;;;;;13.90;3.15;;;9.40;99.90;;;;;;5070475;28;20040;-76
2023/12/21 01:48:42;;;;;;;17.00;3.35;;;9.40;99.90;;;;;;5101910;28;20044;-75
2023/12/21 01:51:09;;;;;;;21.10;4.15;;;9.40;99.90;;;;;;5069870;28;20068;-76
2023/12/21 01:53:36;;;;;;;14.50;2.92;;;9.40;99.90;;;;;;5070405;28;20546;-75
2023/12/21 01:56:03;;;;;;;16.73;3.10;;;9.50;99.90;;;;;;5069627;28;20037;-74
2023/12/21 01:58:30;;;;;;;16.50;3.00;;;9.40;99.90;;;;;;5071093;28;20601;-74
2023/12/21 02:00:57;;;;;;;18.88;3.53;;;9.50;99.90;;;;;;5070349;28;20036;-75
2023/12/21 02:03:27;;;;;;;22.23;3.78;;;9.60;99.90;;;;;;5070283;28;20074;-75
2023/12/21 02:05:52;;;;;;;10.77;2.60;;;9.40;99.90;;;;;;5071312;28;20041;-74
2023/12/21 02:08:20;;;;;;;17.83;4.03;;;9.40;99.90;;;;;;5071503;28;20389;-75
2023/12/21 02:10:49;;;;;;;17.40;3.30;;;9.50;99.90;;;;;;5070127;28;20464;-75
2023/12/21 02:13:16;;;;;;;19.08;3.05;;;9.50;99.90;;;;;;5071112;28;20045;-75
2023/12/21 02:15:41;;;;;;;12.48;3.00;;;9.70;99.90;;;;;;5070028;28;20485;-74
2023/12/21 02:18:12;;;;;;;16.33;4.22;;;9.40;99.90;;;;;;5070353;28;20044;-75
2023/12/21 02:20:39;;;;;;;16.25;3.08;;;9.60;99.90;;;;;;5072270;28;20056;-76
2023/12/21 02:23:07;;;;;;;15.18;3.50;;;9.40;99.90;;;;;;5070012;28;20080;-77
2023/12/21 02:25:42;;;;;;;16.13;3.22;;;9.40;99.90;;;;;;5071941;28;20044;-76
2023/12/21 02:28:08;;;;;;;11.82;3.10;;;9.50;99.90;;;;;;5070026;28;20059;-76
2023/12/21 02:30:34;;;;;;;14.93;2.90;;;9.50;99.90;;;;;;5070388;28;20048;-76
2023/12/21 02:33:00;;;;;;;13.98;3.50;;;9.50;99.90;;;;;;5070660;28;20040;-77
2023/12/21 02:35:26;;;;;;;13.50;3.20;;;9.40;99.90;;;;;;5070668;28;20060;-76
2023/12/21 02:37:51;;;;;;;15.35;3.58;;;9.50;99.90;;;;;;5069961;28;20045;-76
2023/12/21 02:40:17;;;;;;;18.38;2.85;;;9.40;99.90;;;;;;5070586;28;20059;-77
2023/12/21 02:42:43;;;;;;;16.45;3.40;;;9.40;99.90;;;;;;5070641;28;20052;-76
2023/12/21 02:45:12;;;;;;;18.58;3.75;;;9.50;99.90;;;;;;5069286;28;20127;-76
2023/12/21 02:47:37;;;;;;;11.43;2.92;;;10.60;99.90;;;;;;5070232;28;20048;-75
2023/12/21 02:50:03;;;;;;;14.93;3.30;;;9.40;99.90;;;;;;5069983;28;20441;-75
2023/12/21 02:52:29;;;;;;;13.95;3.15;;;9.40;99.90;;;;;;5070153;28;20098;-75
2023/12/21 02:54:54;;;;;;;24.02;3.95;;;9.80;99.90;;;;;;5070764;28;20040;-75
2023/12/21 02:57:20;;;;;;;12.77;3.00;;;9.40;99.90;;;;;;5070256;28;20047;-74
2023/12/21 02:59:46;;;;;;;18.13;3.30;;;9.40;99.90;;;;;;5069127;28;20047;-74
2023/12/21 03:02:11;;;;;;;13.02;3.60;;;9.70;99.90;;;;;;5071628;28;20436;-74
2023/12/21 03:04:37;;;;;;;15.73;3.17;;;9.40;99.90;;;;;;5074126;28;20507;-74
2023/12/21 03:07:02;;;;;;;14.15;3.30;;;9.40;99.90;;;;;;5072923;28;20150;-75
2023/12/21 03:09:28;;;;;;;18.92;3.50;;;9.40;99.90;;;;;;5073289;28;20265;-75
2023/12/21 03:11:54;;;;;;;17.67;3.47;;;9.30;99.90;;;;;;5073155;28;20085;-74
2023/12/21 03:14:22;;;;;;;16.00;3.22;;;9.60;99.90;;;;;;5073603;28;20036;-74
2023/12/21 03:16:48;;;;;;;10.70;3.03;;;9.60;99.90;;;;;;5074227;28;20385;-74
2023/12/21 03:19:14;;;;;;;16.35;3.05;;;9.40;99.90;;;;;;5072623;28;20044;-75
2023/12/21 03:21:40;;;;;;;15.13;3.10;;;9.60;99.90;;;;;;5073666;28;20037;-75
2023/12/21 03:24:06;;;;;;;15.52;3.50;;;9.60;99.90;;;;;;5073611;28;20094;-74
2023/12/21 03:26:31;;;;;;;22.90;3.58;;;9.50;99.90;;;;;;5073049;28;20049;-74
2023/12/21 03:28:57;;;;;;;18.33;3.20;;;9.50;99.90;;;;;;5073434;28;20048;-75
2023/12/21 03:31:23;;;;;;;15.05;3.53;;;9.50;99.90;;;;;;5073507;28;20052;-75
2023/12/21 03:33:49;;;;;;;11.00;2.90;;;9.50;99.90;;;;;;5072948;28;20396;-74
2023/12/21 03:36:14;;;;;;;10.80;2.78;;;9.50;99.90;;;;;;5074669;28;20484;-75
2023/12/21 03:38:40;;;;;;;13.93;3.33;;;9.70;99.90;;;;;;5073480;28;20139;-75
2023/12/21 03:41:06;;;;;;;16.35;3.03;;;9.60;99.90;;;;;;5072446;28;20052;-75
2023/12/21 03:43:31;;;;;;;14.45;3.60;;;9.60;99.90;;;;;;5073502;28;20052;-75
2023/12/21 03:46:00;;;;;;;18.83;3.22;;;9.60;99.90;;;;;;5073183;28;20048;-75
2023/12/21 03:48:25;;;;;;;14.68;3.08;;;9.60;99.90;;;;;;5071993;28;20155;-75
2023/12/21 03:50:51;;;;;;;20.30;3.00;;;9.70;99.90;;;;;;5073587;28;20041;-75
2023/12/21 03:53:16;;;;;;;18.05;3.20;;;9.60;99.90;;;;;;5074227;28;20562;-75
2023/12/21 03:55:43;;;;;;;14.82;3.13;;;9.60;99.90;;;;;;5072658;28;20106;-75
2023/12/21 03:58:09;;;;;;;22.17;3.35;;;9.60;99.90;;;;;;5072696;28;20052;-74
2023/12/21 04:00:34;;;;;;;15.13;3.85;;;9.70;99.90;;;;;;5073119;28;20373;-75
2023/12/21 04:03:01;;;;;;;12.40;2.80;;;9.80;99.90;;;;;;5072059;28;20044;-75
2023/12/21 04:05:26;;;;;;;14.13;3.20;;;9.60;99.90;;;;;;5072857;28;20492;-74
2023/12/21 04:07:52;;;;;;;14.68;2.80;;;9.60;99.90;;;;;;5073041;28;20079;-74
2023/12/21 04:10:18;;;;;;;19.05;2.90;;;9.60;99.90;;;;;;5071866;28;20584;-74
2023/12/21 04:12:43;;;;;;;17.02;3.50;;;9.60;99.90;;;;;;5073626;28;20181;-74
2023/12/21 04:15:11;;;;;;;21.33;3.60;;;9.60;99.90;;;;;;5071572;28;20051;-74
2023/12/21 04:17:37;;;;;;;18.90;3.78;;;9.70;99.90;;;;;;5073124;28;20037;-74
2023/12/21 04:20:04;;;;;;;17.02;3.05;;;9.60;99.90;;;;;;5072525;28;20066;-74
2023/12/21 04:22:29;;;;;;;13.23;2.83;;;9.60;99.90;;;;;;5072276;28;20057;-74
2023/12/21 04:24:55;;;;;;;13.68;2.92;;;9.60;99.90;;;;;;5072335;28;20044;-74
2023/12/21 04:27:21;;;;;;;16.20;2.80;;;9.70;99.90;;;;;;5073489;28;20040;-74
2023/12/21 04:29:46;;;;;;;13.80;3.45;;;9.70;99.90;;;;;;5071607;28;20400;-74
2023/12/21 04:32:12;;;;;;;18.27;3.03;;;9.80;99.90;;;;;;5072268;28;20044;-74
2023/12/21 04:34:38;;;;;;;14.35;3.05;;;9.70;99.90;;;;;;5072611;28;20053;-74
2023/12/21 04:37:03;;;;;;;14.32;2.70;;;9.70;99.90;;;;;;5072754;28;20071;-73
2023/12/21 04:39:29;;;;;;;15.25;2.92;;;9.70;99.90;;;;;;5071750;28;20040;-73
2023/12/21 04:41:55;;;;;;;13.18;2.85;;;9.70;99.90;;;;;;5072210;28;20197;-73
2023/12/21 04:44:21;;;;;;;12.32;2.92;;;9.60;99.90;;;;;;5071095;28;20407;-73
2023/12/21 04:46:48;;;;;;;16.95;3.50;;;9.70;99.90;;;;;;5073434;28;20040;-73
2023/12/21 04:49:15;;;;;;;17.55;2.90;;;9.70;99.90;;;;;;5071930;28;20059;-74
2023/12/21 04:51:40;;;;;;;13.60;2.67;;;9.60;99.90;;;;;;5071560;28;20075;-74
2023/12/21 04:54:06;;;;;;;13.73;3.05;;;9.70;99.90;;;;;;5072713;28;20071;-75
2023/12/21 04:56:32;;;;;;;18.30;3.25;;;9.70;99.90;;;;;;5071733;28;20041;-75
2023/12/21 04:58:57;;;;;;;13.25;2.83;;;9.70;99.90;;;;;;5071218;28;20052;-75
2023/12/21 05:01:23;;;;;;;15.98;3.13;;;9.80;99.90;;;;;;5071741;28;20064;-74
2023/12/21 05:03:48;;;;;;;10.57;2.47;;;10.20;99.90;;;;;;5071712;28;20450;-75
2023/12/21 05:06:14;;;;;;;12.75;2.53;;;10.30;99.90;;;;;;5071113;28;20044;-75
2023/12/21 05:08:40;;;;;;;13.55;2.33;;;9.80;99.90;;;;;;5071710;28;20044;-75
2023/12/21 05:11:05;;;;;;;13.80;3.33;;;9.80;99.90;;;;;;5071292;28;20032;-75
2023/12/21 05:13:31;;;;;;;15.88;2.63;;;9.80;99.90;;;;;;5070561;28;20045;-75
2023/12/21 05:15:56;;;;;;;17.50;3.40;;;9.80;99.90;;;;;;5071600;28;20166;-74
2023/12/21 05:18:23;;;;;;;14.25;2.78;;;9.80;99.90;;;;;;5071167;28;20048;-73
2023/12/21 05:20:49;;;;;;;17.48;3.10;;;9.90;99.90;;;;;;5071528;28;20052;-75
2023/12/21 05:23:14;;;;;;;11.48;3.10;;;9.90;99.90;;;;;;5072376;28;20051;-75
2023/12/21 05:25:43;;;;;;;18.55;4.25;;;9.90;99.90;;;;;;5069646;28;20074;-75
2023/12/21 05:28:12;;;;;;;15.43;3.17;;;9.90;99.90;;;;;;5071300;28;20053;-75
2023/12/21 05:30:38;;;;;;;15.18;3.13;;;10.60;99.90;;;;;;5072320;28;20053;-74
2023/12/21 05:33:13;;;;;;;12.68;2.95;;;10.00;99.90;;;;;;5070550;28;20044;-75
2023/12/21 05:35:39;;;;;;;10.57;2.28;;;10.00;99.90;;;;;;5071266;28;20123;-76
2023/12/21 05:38:04;;;;;;;13.18;3.60;;;9.90;99.90;;;;;;5071089;28;20465;-76
2023/12/21 05:40:30;;;;;;;11.70;2.47;;;10.30;99.90;;;;;;5070121;28;20051;-74
2023/12/21 05:42:55;;;;;;;15.32;2.83;;;10.00;99.90;;;;;;5070979;28;20060;-76
2023/12/21 05:45:22;;;;;;;11.90;2.78;;;10.00;99.90;;;;;;5071747;28;20072;-75
2023/12/21 05:47:48;;;;;;;17.95;3.15;;;10.00;99.90;;;;;;5070513;28;20484;-74
2023/12/21 05:50:14;;;;;;;9.90;3.13;;;10.10;99.90;;;;;;5070649;28;20051;-75
2023/12/21 05:52:40;;;;;;;16.88;2.65;;;9.90;99.90;;;;;;5072771;28;20040;-75
2023/12/21 05:55:06;;;;;;;16.05;3.10;;;10.00;99.90;;;;;;5103754;28;20037;-75
2023/12/21 05:57:32;;;;;;;8.98;2.40;;;9.90;99.90;;;;;;5070196;28;20098;-74
2023/12/21 05:59:58;;;;;;;11.68;2.70;;;9.90;99.90;;;;;;5071101;28;20053;-74
2023/12/21 06:02:23;;;;;;;9.20;2.33;;;9.90;99.90;;;;;;5070063;28;20044;-74
2023/12/21 06:04:50;;;;;;;12.93;2.90;;;9.90;99.90;;;;;;5070968;28;20044;-74
2023/12/21 06:07:15;;;;;;;11.85;2.30;;;9.90;99.90;;;;;;5070433;28;20052;-74
2023/12/21 06:09:42;;;;;;;14.32;2.42;;;10.40;99.90;;;;;;5069906;28;20036;-74
2023/12/21 06:12:08;;;;;;;14.88;3.08;;;9.90;99.90;;;;;;5070372;28;20084;-74
2023/12/21 06:14:34;;;;;;;11.23;2.80;;;9.80;99.90;;;;;;5070978;28;20057;-75
2023/12/21 06:16:59;;;;;;;11.38;2.60;;;9.80;99.90;;;;;;5069536;28;20033;-74
2023/12/21 06:19:25;;;;;;;13.68;2.75;;;9.70;99.90;;;;;;5070674;28;20053;-75
2023/12/21 06:21:50;;;;;;;9.70;2.67;;;9.80;99.90;;;;;;5069521;28;20045;-75
2023/12/21 06:24:16;;;;;;;13.68;2.65;;;9.70;99.90;;;;;;5070318;28;20041;-74
2023/12/21 06:26:42;;;;;;;11.60;2.67;;;9.70;99.90;;;;;;5071445;28;20480;-74
2023/12/21 06:29:08;;;;;;;12.63;2.50;;;10.30;99.90;;;;;;5069157;28;20044;-75
2023/12/21 06:31:34;;;;;;;13.38;3.30;;;9.60;99.90;;;;;;5070482;28;20052;-75
2023/12/21 06:34:00;;;;;;;11.57;2.47;;;9.50;99.90;;;;;;5070422;28;20153;-75
2023/12/21 06:36:25;;;;;;;8.50;2.50;;;9.80;99.90;;;;;;5071818;28;20102;-77
2023/12/21 06:38:52;;;;;;;12.15;2.33;;;9.50;99.90;;;;;;5073834;28;20045;-77
2023/12/21 06:41:17;;;;;;;12.57;2.53;;;9.50;99.90;;;;;;5073407;28;20147;-77
2023/12/21 06:43:43;;;;;;;14.45;2.90;;;9.70;99.90;;;;;;5071934;28;20119;-77
2023/12/21 06:46:15;;;;;;;11.25;2.10;;;9.40;99.90;;;;;;5072723;28;20044;-77
2023/12/21 06:48:44;;;;;;;12.20;2.72;;;9.70;99.90;;;;;;5072054;28;20040;-77
2023/12/21 06:51:11;;;;;;;10.77;2.60;;;9.70;99.90;;;;;;5072516;28;20407;-78
2023/12/21 06:53:36;;;;;;;10.27;2.15;;;9.50;99.90;;;;;;5071637;28;20480;-77
2023/12/21 06:56:02;;;;;;;14.32;2.75;;;9.40;99.90;;;;;;5073751;28;20094;-77
2023/12/21 06:58:27;;;;;;;18.17;2.97;;;9.30;99.90;;;;;;5073741;28;20044;-77
2023/12/21 07:00:53;;;;;;;12.43;3.03;;;9.30;99.90;;;;;;5075049;28;20045;-77
2023/12/21 07:03:22;;;;;;;13.13;2.55;;;9.30;99.90;;;;;;5073194;28;20054;-78
2023/12/21 07:05:50;;;;;;;7.22;2.53;;;9.50;99.90;;;;;;5073584;28;20036;-76
2023/12/21 07:08:16;;;;;;;14.70;3.20;;;9.70;99.90;;;;;;5073907;28;20102;-77
2023/12/21 07:10:43;;;;;;;19.20;3.42;;;9.40;99.90;;;;;;5074624;28;20064;-76
2023/12/21 07:13:09;;;;;;;13.65;2.92;;;9.40;99.90;;;;;;5072725;28;20055;-77
2023/12/21 07:15:35;;;;;;;16.65;2.95;;;9.40;99.90;;;;;;5073843;28;20052;-77
2023/12/21 07:18:00;;;;;;;12.27;2.60;;;10.00;99.90;;;;;;5106699;28;20396;-77
2023/12/21 07:20:28;;;;;;;16.65;3.03;;;9.60;99.90;;;;;;5075279;28;20044;-77
2023/12/21 07:22:54;;;;;;;14.13;2.53;;;9.50;99.90;;;;;;5074734;28;20045;-75
2023/12/21 07:25:19;;;;;;;23.10;3.78;;;9.60;99.90;;;;;;5072968;28;20396;-76
2023/12/21 07:27:45;;;;;;;18.50;3.20;;;9.50;99.90;;;;;;5074024;28;20066;-75
2023/12/21 07:30:11;;;;;;;16.40;3.45;;;9.50;99.90;;;;;;5072763;28;20051;-77
2023/12/21 07:32:37;;;;;;;17.83;3.40;;;9.50;99.90;;;;;;5072828;28;20127;-75
2023/12/21 07:35:03;;;;;;;15.88;3.17;;;9.50;99.90;;;;;;5073435;28;20457;-75
2023/12/21 07:37:28;;;;;;;20.75;3.92;;;9.50;99.90;;;;;;5073208;28;20063;-75
2023/12/21 07:39:54;;;;;;;14.00;2.83;;;9.50;99.90;;;;;;5072950;28;20060;-75
2023/12/21 07:42:19;;;;;;;13.68;3.13;;;9.50;99.90;;;;;;5072307;28;20051;-75
2023/12/21 07:44:45;;;;;;;14.65;3.55;;;9.70;99.90;;;;;;5073582;28;20056;-75
2023/12/21 07:47:11;;;;;;;21.20;3.58;;;9.60;99.90;;;;;;5071893;28;20066;-75
2023/12/21 07:49:36;;;;;;;16.80;4.28;;;10.00;99.90;;;;;;5073269;28;20079;-74
2023/12/21 07:52:02;;;;;;;21.63;4.47;;;9.70;99.90;;;;;;5072799;28;20488;-77
2023/12/21 07:54:28;;;;;;;21.73;4.30;;;9.70;99.90;;;;;;5072551;28;20052;-76
2023/12/21 07:56:56;;;;;;;18.25;4.00;;;10.00;99.90;;;;;;5072907;28;20056;-74
2023/12/21 07:59:22;;;;;;;22.70;4.28;;;9.80;99.90;;;;;;5072675;28;20032;-74
2023/12/21 08:01:48;;;;;;;21.52;3.97;;;9.80;99.90;;;;;;5071975;28;20538;-74
2023/12/21 08:04:14;;;;;;;19.77;3.90;;;9.90;99.90;;;;;;5071920;28;20050;-75
2023/12/21 08:06:39;;;;;;;19.00;3.92;;;9.80;99.90;;;;;;5072490;28;20086;-75
2023/12/21 08:09:05;;;;;;;21.98;3.95;;;9.90;99.90;;;;;;5071217;28;20040;-75
2023/12/21 08:11:30;;;;;;;30.88;4.05;;;9.90;99.90;;;;;;5071187;28;20036;-75
2023/12/21 08:13:56;;;;;;;25.40;4.32;;;9.90;99.90;;;;;;5071243;28;20032;-75
2023/12/21 08:16:22;;;;;;;17.42;3.67;;;10.10;99.90;;;;;;5070524;28;20036;-75
2023/12/21 08:18:47;;;;;;;21.15;3.53;;;10.00;99.90;;;;;;5069979;28;20468;-76
2023/12/21 08:21:13;;;;;;;25.95;4.68;;;9.90;99.90;;;;;;5069718;28;20031;-75
2023/12/21 08:23:39;;;;;;;18.35;4.10;;;10.00;99.90;;;;;;5068750;28;20045;-76
2023/12/21 08:26:06;;;;;;;18.48;3.72;;;10.00;99.90;;;;;;5070554;28;20085;-74
2023/12/21 08:28:32;;;;;;;24.98;4.63;;;10.00;99.90;;;;;;5070310;28;20495;-74
2023/12/21 08:30:58;;;;;;;16.80;3.67;;;10.00;99.90;;;;;;5069929;28;20040;-73
2023/12/21 08:33:24;;;;;;;24.75;3.60;;;10.00;99.90;;;;;;5069207;28;20053;-74
2023/12/21 08:35:50;;;;;;;21.60;4.15;;;10.30;99.90;;;;;;5069258;28;20403;-73
2023/12/21 08:38:15;;;;;;;27.42;4.00;;;10.00;99.90;;;;;;5068808;28;20041;-74
2023/12/21 08:40:41;;;;;;;22.45;4.10;;;10.00;99.90;;;;;;5069225;28;20094;-74
2023/12/21 08:43:06;;;;;;;20.60;3.25;;;10.00;99.90;;;;;;5069537;28;20393;-73
2023/12/21 08:45:32;;;;;;;25.42;3.58;;;10.00;99.90;;;;;;5070368;28;20052;-78
2023/12/21 08:47:58;;;;;;;19.08;3.28;;;10.80;99.90;;;;;;5066053;28;20067;-73
2023/12/21 08:50:24;;;;;;;18.83;4.07;;;10.10;99.90;;;;;;5066610;28;20051;-74
2023/12/21 08:52:50;;;;;;;20.85;3.75;;;10.10;99.90;;;;;;5053361;28;20060;-75
2023/12/21 08:55:16;;;;;;;21.95;4.15;;;10.10;99.90;;;;;;5065876;28;20033;-75
2023/12/21 08:57:44;;;;;;;24.85;4.13;;;10.20;99.90;;;;;;5102655;28;20055;-87
2023/12/21 09:00:12;;;;;;;19.52;3.60;;;10.10;99.90;;;;;;5053158;28;20040;-77
2023/12/21 09:02:38;;;;;;;19.75;3.63;;;10.20;99.90;;;;;;5051822;28;20049;-82
2023/12/21 09:05:08;;;;;;;22.58;4.38;;;10.20;99.90;;;;;;5069374;28;20067;-80
2023/12/21 09:07:34;;;;;;;23.45;4.40;;;10.20;99.90;;;;;;5070701;28;20056;-84
2023/12/21 09:10:00;;;;;;;19.38;3.53;;;10.30;99.90;;;;;;5057656;28;20388;-76
2023/12/21 09:12:25;;;;;;;15.77;3.85;;;10.30;99.90;;;;;;5068272;28;20471;-74
2023/12/21 09:14:52;;;;;;;20.52;3.25;;;10.60;99.90;;;;;;5068420;28;20038;-74
2023/12/21 09:17:18;;;;;;;16.40;4.22;;;10.40;99.90;;;;;;5068632;28;20040;-74
2023/12/21 09:19:44;;;;;;;19.02;3.90;;;10.40;99.90;;;;;;5067008;28;20060;-74
2023/12/21 09:22:10;;;;;;;16.33;3.63;;;10.40;99.90;;;;;;5065810;28;20053;-75
2023/12/21 09:24:39;;;;;;;17.33;3.08;;;10.40;99.90;;;;;;5068107;28;20052;-74
2023/12/21 09:27:05;;;;;;;21.02;3.65;;;10.40;99.90;;;;;;5069129;28;20047;-75
2023/12/21 09:29:30;;;;;;;17.73;3.88;;;10.60;99.90;;;;;;5069067;28;20041;-75
2023/12/21 09:31:57;;;;;;;15.90;4.20;;;10.60;99.90;;;;;;5067654;28;20086;-74
2023/12/21 09:34:22;;;;;;;18.40;3.40;;;10.50;99.90;;;;;;5068962;28;20043;-74
2023/12/21 09:36:48;;;;;;;21.48;4.03;;;10.50;99.90;;;;;;5069577;28;20040;-74
2023/12/21 09:39:14;;;;;;;19.65;4.00;;;10.50;99.90;;;;;;5068611;28;20522;-74
2023/12/21 09:41:40;;;;;;;14.63;3.42;;;10.50;99.90;;;;;;5070706;28;20048;-74
2023/12/21 09:44:06;;;;;;;17.70;4.13;;;10.50;99.90;;;;;;5069154;28;20049;-75
2023/12/21 09:46:39;;;;;;;21.17;4.00;;;10.60;99.90;;;;;;5069618;28;20102;-75
2023/12/21 09:49:09;;;;;;;19.38;3.95;;;11.00;99.90;;;;;;5084619;28;20396;-74
2023/12/21 09:51:36;;;;;;;20.60;3.67;;;11.00;99.90;;;;;;5051075;28;20049;-74
2023/12/21 09:54:04;;;;;;;25.15;4.10;;;10.70;99.90;;;;;;5050478;28;20041;-74
2023/12/21 09:56:31;;;;;;;22.10;3.42;;;10.60;99.90;;;;;;5051208;28;20048;-75
2023/12/21 09:58:58;;;;;;;18.50;3.67;;;10.60;99.90;;;;;;5051225;28;20060;-81
2023/12/21 10:01:24;;;;;;;17.60;2.90;;;10.70;99.90;;;;;;5051693;28;20485;-80
2023/12/21 10:03:52;;;;;;;15.50;3.42;;;10.70;99.90;;;;;;5070690;28;20442;-80
2023/12/21 10:06:18;;;;;;;22.65;3.15;;;10.80;99.90;;;;;;5070879;28;20037;-80
2023/12/21 10:08:44;;;;;;;21.92;4.30;;;10.80;99.90;;;;;;5070193;28;20098;-82
2023/12/21 10:11:10;;;;;;;18.33;3.95;;;11.10;99.90;;;;;;5072560;28;20044;-84
2023/12/21 10:13:36;;;;;;;19.65;4.10;;;10.90;99.90;;;;;;5108867;28;20056;-80
2023/12/21 10:16:05;;;;;;;21.15;4.25;;;11.20;99.90;;;;;;5075491;28;20063;-84
2023/12/21 10:18:31;;;;;;;19.75;3.85;;;10.90;99.90;;;;;;5074909;28;20044;-81
2023/12/21 10:20:57;;;;;;;15.68;3.88;;;10.90;99.90;;;;;;5074422;28;20051;-78
2023/12/21 10:23:24;;;;;;;23.80;3.95;;;10.90;99.90;;;;;;5074314;28;20045;-75
2023/12/21 10:25:52;;;;;;;15.27;3.65;;;11.00;99.90;;;;;;5074978;28;20119;-75
2023/12/21 10:28:22;;;;;;;13.73;3.92;;;11.10;99.90;;;;;;5073457;28;20122;-75
2023/12/21 10:30:57;;;;;;;22.23;4.43;;;10.90;99.90;;;;;;5054899;28;20080;-75
2023/12/21 10:33:25;;;;;;;17.75;3.97;;;10.80;99.90;;;;;;5055483;28;20053;-75
2023/12/21 10:35:52;;;;;;;19.45;3.47;;;10.80;99.90;;;;;;5073757;28;20032;-74
2023/12/21 10:38:18;;;;;;;25.23;4.03;;;10.80;99.90;;;;;;5074133;28;20037;-75
2023/12/21 10:40:48;;;;;;;19.88;4.25;;;10.90;99.90;;;;;;5108618;28;20074;-77
2023/12/21 10:43:17;;;;;;;19.42;4.57;;;10.90;99.90;;;;;;5073481;28;20408;-72
2023/12/21 10:45:47;;;;;;;22.58;3.58;;;10.90;99.90;;;;;;5074789;28;20040;-72
2023/12/21 10:48:19;;;;;;;21.13;3.92;;;10.90;99.90;;;;;;5074268;28;20105;-72
2023/12/21 10:50:47;;;;;;;22.10;4.50;;;10.90;99.90;;;;;;5073672;28;20050;-72
2023/12/21 10:53:16;;;;;;;21.83;4.03;;;11.20;99.90;;;;;;5073812;28;20048;-72
2023/12/21 10:55:48;;;;;;;18.90;4.25;;;11.00;99.90;;;;;;5074505;28;20045;-72
2023/12/21 10:58:15;;;;;;;25.05;4.50;;;11.10;99.90;;;;;;5073660;28;20180;-72
2023/12/21 11:00:43;;;;;;;17.73;3.50;;;11.30;99.90;;;;;;5074103;28;20550;-72
2023/12/21 11:03:12;;;;;;;18.15;3.65;;;11.40;99.90;;;;;;5072999;28;20377;-72
2023/12/21 11:05:41;;;;;;;18.23;4.10;;;11.10;99.90;;;;;;5075411;28;20072;-72
2023/12/21 11:08:09;;;;;;;19.85;4.13;;;11.10;99.90;;;;;;5075055;28;20113;-72
2023/12/21 11:10:36;;;;;;;22.38;4.18;;;11.10;99.90;;;;;;5073530;28;20044;-71
2023/12/21 11:13:02;;;;;;;18.27;3.88;;;11.10;99.90;;;;;;5073748;28;20048;-72
2023/12/21 11:15:28;;;;;;;26.02;5.15;;;11.10;99.90;;;;;;5073519;28;20040;-71
2023/12/21 11:18:21;;;;;;;23.27;4.53;;;11.10;99.90;;;;;;5073191;28;20048;-71
2023/12/21 11:20:58;;;;;;;19.88;3.50;;;11.30;99.90;;;;;;5071399;28;20056;-71
2023/12/21 11:23:24;;;;;;;18.73;3.53;;;11.50;99.90;;;;;;5072524;28;20052;-71
2023/12/21 11:25:55;;;;;;;19.23;4.35;;;11.40;99.90;;;;;;5072984;28;20526;-70
2023/12/21 11:28:28;;;;;;;17.65;4.65;;;11.50;99.90;;;;;;5073845;28;20048;-70
2023/12/21 11:30:54;;;;;;;24.38;5.00;;;11.40;99.90;;;;;;5073720;28;20048;-71
2023/12/21 11:33:28;;;;;;;21.52;4.20;;;11.40;99.90;;;;;;5074000;28;20131;-71
2023/12/21 11:35:54;;;;;;;21.00;5.00;;;11.40;99.90;;;;;;5073041;28;20044;-71
2023/12/21 11:38:19;;;;;;;22.42;3.90;;;11.80;99.90;;;;;;5074099;28;20051;-72
2023/12/21 11:40:49;;;;;;;21.25;4.30;;;12.70;99.90;;;;;;5073635;28;20032;-72
2023/12/21 11:43:21;;;;;;;20.58;3.88;;;13.50;99.90;;;;;;5073093;28;20060;-73
2023/12/21 11:45:49;;;;;;;19.85;3.80;;;13.40;99.90;;;;;;5072743;28;20450;-73
2023/12/21 11:48:19;;;;;;;18.38;3.83;;;13.00;99.90;;;;;;5073014;28;20052;-73
2023/12/21 11:50:45;;;;;;;21.00;3.47;;;12.90;99.90;;;;;;5074158;28;20525;-73
2023/12/21 11:53:12;;;;;;;18.48;3.85;;;13.60;99.90;;;;;;5070263;28;20049;-73
2023/12/21 11:55:40;;;;;;;17.13;3.47;;;14.20;99.90;;;;;;5073113;28;20048;-73
2023/12/21 11:58:26;;;;;;;19.20;3.70;;;14.70;99.90;;;;;;5073102;28;20420;-73
2023/12/21 12:00:54;;;;;;;24.20;3.63;;;14.80;99.90;;;;;;5072671;28;20083;-73
2023/12/21 12:03:22;;;;;;;16.50;3.85;;;14.50;99.90;;;;;;5072418;28;20053;-73
2023/12/21 12:05:49;;;;;;;20.23;4.03;;;13.60;99.90;;;;;;5072503;28;20045;-73
2023/12/21 12:08:21;;;;;;;16.92;3.63;;;13.10;99.90;;;;;;5071121;28;20063;-74
2023/12/21 12:10:46;;;;;;;18.67;3.92;;;12.70;99.90;;;;;;5072857;28;20048;-73
2023/12/21 12:13:18;;;;;;;19.67;4.13;;;12.60;99.90;;;;;;5072751;28;20036;-74
2023/12/21 12:15:47;;;;;;;22.20;4.03;;;12.30;99.90;;;;;;5072022;28;20036;-73
2023/12/21 12:18:16;;;;;;;16.35;3.92;;;12.10;99.90;;;;;;5072572;28;20047;-74
2023/12/21 12:20:43;;;;;;;20.08;4.53;;;12.00;99.90;;;;;;5071996;28;20036;-74
2023/12/21 12:23:09;;;;;;;15.68;4.13;;;11.80;99.90;;;;;;5072561;28;20040;-74
2023/12/21 12:25:35;;;;;;;15.15;3.70;;;11.70;99.90;;;;;;5072176;28;20055;-73
2023/12/21 12:28:07;;;;;;;23.48;4.40;;;11.60;99.90;;;;;;5071346;28;20061;-73
2023/12/21 12:30:33;;;;;;;19.65;3.85;;;11.60;99.90;;;;;;5103475;28;20033;-78
2023/12/21 12:33:03;;;;;;;21.75;4.25;;;11.50;99.90;;;;;;5072388;28;20093;-73
2023/12/21 12:35:34;;;;;;;23.63;4.10;;;11.50;99.90;;;;;;5071562;28;20044;-73
2023/12/21 12:38:00;;;;;;;22.50;4.07;;;11.90;99.90;;;;;;5071710;28;20072;-78
2023/12/21 12:40:26;;;;;;;19.77;4.00;;;11.80;99.90;;;;;;5072229;28;20076;-71